Buffalo Niagara International Airport
KBUF : now visible

Airfield :











YOU CAN JOIN US ON...

 
LOGIN :

Register | Disclaimer

   EN    FR    IT 

 









Legend :    VFR   Marginal VFR   IFR   Intensive IFR   Very Intensive IFR
Visi :
Ceiling :
>= 8 km
>= 3000ft
5 to 8 km
1000 to 3000 ft
1500m to 5 km
500 to 1000 ft
800 to 1500m
200 to 500 ft
< 800m
< 200 ft
Symbols :   Thunderstorms  Fog  Heavy snow  Heavy precipitations  Wind > 20 kt






- Airport Elevation : 728 ft
- IATA code : BUF


KBUF - Buffalo Niagara International

CURRENT METAR :
  • 180454Z 15004KT 10SM FEW250 17/08 A2996 RMK AO2 SLP142 T01670078 402330083 $

EXPIRED METARs :
  • 180354Z 17006KT 10SM FEW180 17/07 A2996 RMK AO2 SLP142 T01720072 $
  • 180254Z 17007KT 10SM CLR 18/07 A2997 RMK AO2 SLP147 T01830067 56003 $

TAF KBUF
Valid from the 18 at 06:00 until the 19 at 06:00 UTC


180523Z 1806/1906 18006KT P6SM SCT250
FM180900 20009KT P6SM BKN250 WS012/23040KT
FM181300 21013G19KT P6SM BKN150
FM181500 23015G23KT P6SM -SHRA OVC060
FM181800 23013G21KT P6SM VCSH BKN050
FM182300 22012KT P6SM VCTS BKN040CB
FM190300 22010KT P6SM BKN050
KZOB FIR / North America



MET'MAP, your aeronautical weather chart ! - Copyright ORBIFLY December 2007 - Disclaimer

ORBIFLY MET'MAP TEAM :

Programming & Development : Alexandra Zaïnal
Concept & original design : Baudouin d'Aumeries
Assistance for programming : Marc-Olivier Méhu
Technical & hardware support : Manuel Goepfert

Contact : metmap@orbifly.com




SOURCES & CREDITS :

   NOAA       Earth
Advisory